TimeCDT,TemperatureF,Dew PointF,Humidity,Sea Level PressureIn,VisibilityMPH,Wind Direction,Wind SpeedMPH,Gust SpeedMPH,PrecipitationIn,Events,Conditions,WindDirDegrees,DateUTC
12:53 AM,44.1,33.1,65,30.34,10.0,Calm,Calm,-,N/A,,Clear,0,2013-05-24 05:53:00
1:53 AM,39.0,35.1,86,30.34,10.0,Calm,Calm,-,N/A,,Clear,0,2013-05-24 06:53:00
2:53 AM,39.9,33.1,77,30.34,10.0,Calm,Calm,-,N/A,,Clear,0,2013-05-24 07:53:00
3:53 AM,37.9,30.9,76,30.33,10.0,Calm,Calm,-,N/A,,Clear,0,2013-05-24 08:53:00
4:53 AM,39.0,30.9,73,30.34,10.0,SE,4.6,-,N/A,,Clear,140,2013-05-24 09:53:00
5:53 AM,39.9,32.0,73,30.35,10.0,SE,6.9,-,N/A,,Clear,140,2013-05-24 10:53:00
6:53 AM,41.0,33.1,73,30.35,10.0,SE,8.1,-,N/A,,Clear,140,2013-05-24 11:53:00
7:53 AM,48.9,32.0,52,30.35,10.0,SSE,10.4,-,N/A,,Clear,160,2013-05-24 12:53:00
8:53 AM,53.1,30.0,41,30.35,10.0,SSE,13.8,-,N/A,,Clear,160,2013-05-24 13:53:00
9:53 AM,55.9,28.0,34,30.34,10.0,SSE,13.8,-,N/A,,Clear,150,2013-05-24 14:53:00
10:53 AM,60.1,26.1,27,30.33,10.0,SSE,16.1,-,N/A,,Clear,150,2013-05-24 15:53:00
11:53 AM,62.1,27.0,26,30.31,10.0,SSE,11.5,20.7,N/A,,Clear,160,2013-05-24 16:53:00
12:53 PM,62.1,25.0,24,30.29,10.0,SSE,11.5,24.2,N/A,,Clear,160,2013-05-24 17:53:00
1:53 PM,64.9,25.0,22,30.26,10.0,SSE,16.1,23.0,N/A,,Clear,150,2013-05-24 18:53:00
2:53 PM,64.9,27.0,24,30.25,10.0,South,18.4,-,N/A,,Clear,170,2013-05-24 19:53:00
3:53 PM,64.0,30.0,28,30.27,10.0,South,12.7,-,N/A,,Mostly Cloudy,180,2013-05-24 20:53:00
4:53 PM,62.1,28.9,29,30.25,10.0,South,13.8,18.4,N/A,,Mostly Cloudy,180,2013-05-24 21:53:00
5:53 PM,61.0,30.0,31,30.25,10.0,SSE,9.2,-,N/A,,Overcast,160,2013-05-24 22:53:00
6:53 PM,61.0,33.1,35,30.23,10.0,SSE,12.7,-,N/A,,Overcast,150,2013-05-24 23:53:00
7:53 PM,57.9,39.9,51,30.21,10.0,ESE,6.9,-,0.00,,Overcast,110,2013-05-25 00:53:00
8:53 PM,54.0,44.1,69,30.24,10.0,ESE,4.6,-,0.01,Rain,Light Rain,110,2013-05-25 01:53:00
9:53 PM,51.1,46.0,83,30.25,10.0,SE,4.6,-,0.03,Rain,Light Rain,140,2013-05-25 02:53:00
10:53 PM,51.1,46.9,86,30.25,10.0,SE,9.2,-,0.02,Rain,Light Rain,130,2013-05-25 03:53:00
11:53 PM,50.0,46.9,89,30.24,10.0,ESE,5.8,-,0.00,,Overcast,110,2013-05-25 04:53:00